sensor_id;sensor_type;location;lat;lon;timestamp;P1;durP1;ratioP1;P2;durP2;ratioP2
55641;SDS011;41509;53.108;6.100;2023-07-09T00:02:22;7.57;;;4.80;;
55641;SDS011;41509;53.108;6.100;2023-07-09T00:04:48;10.05;;;5.50;;
55641;SDS011;41509;53.108;6.100;2023-07-09T00:07:17;9.52;;;4.80;;
55641;SDS011;41509;53.108;6.100;2023-07-09T00:09:53;12.57;;;4.72;;
55641;SDS011;41509;53.108;6.100;2023-07-09T00:12:19;8.10;;;4.93;;
55641;SDS011;41509;53.108;6.100;2023-07-09T00:14:46;8.18;;;5.32;;
55641;SDS011;41509;53.108;6.100;2023-07-09T00:17:16;8.73;;;5.20;;
55641;SDS011;41509;53.108;6.100;2023-07-09T00:19:44;7.95;;;5.28;;
55641;SDS011;41509;53.108;6.100;2023-07-09T00:22:14;9.88;;;5.40;;
55641;SDS011;41509;53.108;6.100;2023-07-09T00:24:47;9.02;;;4.80;;
55641;SDS011;41509;53.108;6.100;2023-07-09T00:27:16;8.82;;;5.18;;
55641;SDS011;41509;53.108;6.100;2023-07-09T00:29:44;9.25;;;5.45;;
55641;SDS011;41509;53.108;6.100;2023-07-09T00:32:15;8.50;;;5.32;;
55641;SDS011;41509;53.108;6.100;2023-07-09T00:34:43;8.95;;;5.47;;
55641;SDS011;41509;53.108;6.100;2023-07-09T00:37:14;10.13;;;5.93;;
55641;SDS011;41509;53.108;6.100;2023-07-09T00:39:42;10.27;;;5.47;;
55641;SDS011;41509;53.108;6.100;2023-07-09T00:42:15;8.55;;;5.40;;
55641;SDS011;41509;53.108;6.100;2023-07-09T00:44:44;11.00;;;5.38;;
55641;SDS011;41509;53.108;6.100;2023-07-09T00:53:20;8.70;;;5.55;;
55641;SDS011;41509;53.108;6.100;2023-07-09T00:55:54;12.52;;;5.65;;
55641;SDS011;41509;53.108;6.100;2023-07-09T00:58:28;11.77;;;6.47;;
55641;SDS011;41509;53.108;6.100;2023-07-09T01:00:55;10.73;;;5.85;;
55641;SDS011;41509;53.108;6.100;2023-07-09T01:03:37;7.93;;;5.57;;
55641;SDS011;41509;53.108;6.100;2023-07-09T01:06:11;13.70;;;6.88;;
55641;SDS011;41509;53.108;6.100;2023-07-09T01:08:40;13.50;;;6.43;;
55641;SDS011;41509;53.108;6.100;2023-07-09T01:11:16;11.70;;;6.13;;
55641;SDS011;41509;53.108;6.100;2023-07-09T01:13:46;12.77;;;6.57;;
55641;SDS011;41509;53.108;6.100;2023-07-09T01:16:21;10.75;;;6.22;;
55641;SDS011;41509;53.108;6.100;2023-07-09T01:18:50;12.10;;;5.82;;
55641;SDS011;41509;53.108;6.100;2023-07-09T01:21:16;9.57;;;5.72;;
55641;SDS011;41509;53.108;6.100;2023-07-09T01:26:13;9.15;;;5.72;;
55641;SDS011;41509;53.108;6.100;2023-07-09T01:28:40;11.32;;;6.00;;
55641;SDS011;41509;53.108;6.100;2023-07-09T01:31:09;8.20;;;5.32;;
55641;SDS011;41509;53.108;6.100;2023-07-09T01:33:36;10.35;;;6.13;;
55641;SDS011;41509;53.108;6.100;2023-07-09T01:36:07;8.05;;;5.47;;
55641;SDS011;41509;53.108;6.100;2023-07-09T01:38:34;9.57;;;5.40;;
55641;SDS011;41509;53.108;6.100;2023-07-09T01:41:01;10.70;;;6.18;;
55641;SDS011;41509;53.108;6.100;2023-07-09T01:43:27;8.90;;;5.40;;
55641;SDS011;41509;53.108;6.100;2023-07-09T01:45:54;10.70;;;5.47;;
55641;SDS011;41509;53.108;6.100;2023-07-09T01:48:22;11.35;;;6.32;;
55641;SDS011;41509;53.108;6.100;2023-07-09T01:50:50;8.93;;;6.28;;
55641;SDS011;41509;53.108;6.100;2023-07-09T01:53:21;10.32;;;5.70;;
55641;SDS011;41509;53.108;6.100;2023-07-09T01:55:51;9.32;;;5.85;;
55641;SDS011;41509;53.108;6.100;2023-07-09T01:58:19;8.70;;;6.18;;
55641;SDS011;41509;53.108;6.100;2023-07-09T02:00:49;10.27;;;5.60;;
55641;SDS011;41509;53.108;6.100;2023-07-09T02:03:16;8.57;;;5.53;;
55641;SDS011;41509;53.108;6.100;2023-07-09T02:05:42;10.10;;;5.55;;
55641;SDS011;41509;53.108;6.100;2023-07-09T02:10:34;8.15;;;5.63;;
55641;SDS011;41509;53.108;6.100;2023-07-09T02:15:25;8.27;;;5.55;;
55641;SDS011;41509;53.108;6.100;2023-07-09T02:20:17;8.23;;;5.38;;
55641;SDS011;41509;53.108;6.100;2023-07-09T02:22:44;10.13;;;6.28;;
55641;SDS011;41509;53.108;6.100;2023-07-09T02:25:10;10.60;;;5.53;;
55641;SDS011;41509;53.108;6.100;2023-07-09T02:30:02;10.27;;;6.07;;
55641;SDS011;41509;53.108;6.100;2023-07-09T02:32:31;8.35;;;5.47;;
55641;SDS011;41509;53.108;6.100;2023-07-09T02:34:56;7.65;;;5.22;;
55641;SDS011;41509;53.108;6.100;2023-07-09T02:37:24;11.10;;;6.25;;
55641;SDS011;41509;53.108;6.100;2023-07-09T02:39:51;9.63;;;6.03;;
55641;SDS011;41509;53.108;6.100;2023-07-09T02:42:17;10.68;;;5.65;;
55641;SDS011;41509;53.108;6.100;2023-07-09T02:44:44;9.75;;;5.55;;
55641;SDS011;41509;53.108;6.100;2023-07-09T02:49:36;11.70;;;5.32;;
55641;SDS011;41509;53.108;6.100;2023-07-09T02:54:28;9.20;;;6.00;;
55641;SDS011;41509;53.108;6.100;2023-07-09T02:59:19;10.82;;;6.03;;
55641;SDS011;41509;53.108;6.100;2023-07-09T03:01:45;13.38;;;5.93;;
55641;SDS011;41509;53.108;6.100;2023-07-09T03:04:12;10.13;;;5.63;;
55641;SDS011;41509;53.108;6.100;2023-07-09T03:06:41;8.27;;;5.35;;
55641;SDS011;41509;53.108;6.100;2023-07-09T03:11:33;9.93;;;5.78;;
55641;SDS011;41509;53.108;6.100;2023-07-09T03:14:00;8.07;;;5.88;;
55641;SDS011;41509;53.108;6.100;2023-07-09T03:18:55;14.73;;;5.70;;
55641;SDS011;41509;53.108;6.100;2023-07-09T03:21:21;9.95;;;5.43;;
55641;SDS011;41509;53.108;6.100;2023-07-09T03:23:48;12.30;;;5.97;;
55641;SDS011;41509;53.108;6.100;2023-07-09T03:26:14;9.45;;;5.72;;
55641;SDS011;41509;53.108;6.100;2023-07-09T03:28:42;8.70;;;5.97;;
55641;SDS011;41509;53.108;6.100;2023-07-09T03:33:34;9.70;;;5.40;;
55641;SDS011;41509;53.108;6.100;2023-07-09T03:38:25;11.18;;;5.85;;
55641;SDS011;41509;53.108;6.100;2023-07-09T03:40:51;10.65;;;6.90;;
55641;SDS011;41509;53.108;6.100;2023-07-09T03:43:18;11.18;;;6.43;;
55641;SDS011;41509;53.108;6.100;2023-07-09T03:48:10;8.77;;;5.80;;
55641;SDS011;41509;53.108;6.100;2023-07-09T03:53:04;11.45;;;5.68;;
55641;SDS011;41509;53.108;6.100;2023-07-09T03:57:56;9.98;;;6.25;;
55641;SDS011;41509;53.108;6.100;2023-07-09T04:02:48;11.10;;;5.88;;
55641;SDS011;41509;53.108;6.100;2023-07-09T04:05:14;11.07;;;5.68;;
55641;SDS011;41509;53.108;6.100;2023-07-09T04:07:39;9.07;;;5.43;;
55641;SDS011;41509;53.108;6.100;2023-07-09T04:12:31;9.63;;;5.75;;
55641;SDS011;41509;53.108;6.100;2023-07-09T04:17:23;12.25;;;6.40;;
55641;SDS011;41509;53.108;6.100;2023-07-09T04:22:15;9.52;;;5.93;;
55641;SDS011;41509;53.108;6.100;2023-07-09T04:27:07;11.52;;;6.03;;
55641;SDS011;41509;53.108;6.100;2023-07-09T04:29:33;9.77;;;5.35;;
55641;SDS011;41509;53.108;6.100;2023-07-09T04:32:00;8.55;;;5.90;;
55641;SDS011;41509;53.108;6.100;2023-07-09T04:34:27;12.07;;;5.80;;
55641;SDS011;41509;53.108;6.100;2023-07-09T04:39:18;9.57;;;5.68;;
55641;SDS011;41509;53.108;6.100;2023-07-09T04:41:44;9.60;;;5.40;;
55641;SDS011;41509;53.108;6.100;2023-07-09T04:44:09;11.55;;;6.18;;
55641;SDS011;41509;53.108;6.100;2023-07-09T04:46:35;8.80;;;5.70;;
55641;SDS011;41509;53.108;6.100;2023-07-09T04:49:01;10.43;;;6.35;;
55641;SDS011;41509;53.108;6.100;2023-07-09T04:53:52;11.55;;;6.05;;
55641;SDS011;41509;53.108;6.100;2023-07-09T04:56:18;8.18;;;5.60;;
55641;SDS011;41509;53.108;6.100;2023-07-09T05:01:10;9.77;;;5.75;;
55641;SDS011;41509;53.108;6.100;2023-07-09T05:03:36;10.63;;;6.57;;
55641;SDS011;41509;53.108;6.100;2023-07-09T05:06:03;10.02;;;6.10;;
55641;SDS011;41509;53.108;6.100;2023-07-09T05:08:29;9.63;;;6.20;;
55641;SDS011;41509;53.108;6.100;2023-07-09T05:13:21;10.57;;;6.13;;
55641;SDS011;41509;53.108;6.100;2023-07-09T05:18:14;10.15;;;6.78;;
55641;SDS011;41509;53.108;6.100;2023-07-09T05:20:40;9.30;;;6.10;;
55641;SDS011;41509;53.108;6.100;2023-07-09T05:23:07;9.20;;;6.05;;
55641;SDS011;41509;53.108;6.100;2023-07-09T05:25:34;10.07;;;6.35;;
55641;SDS011;41509;53.108;6.100;2023-07-09T05:30:26;12.77;;;6.53;;
55641;SDS011;41509;53.108;6.100;2023-07-09T05:32:52;9.70;;;5.93;;
55641;SDS011;41509;53.108;6.100;2023-07-09T05:35:27;13.75;;;6.75;;
55641;SDS011;41509;53.108;6.100;2023-07-09T05:40:19;13.10;;;7.23;;
55641;SDS011;41509;53.108;6.100;2023-07-09T05:42:46;10.52;;;6.32;;
55641;SDS011;41509;53.108;6.100;2023-07-09T05:45:14;10.38;;;6.93;;
55641;SDS011;41509;53.108;6.100;2023-07-09T05:47:40;9.15;;;5.85;;
55641;SDS011;41509;53.108;6.100;2023-07-09T05:52:32;10.52;;;6.38;;
55641;SDS011;41509;53.108;6.100;2023-07-09T05:57:24;10.70;;;6.57;;
55641;SDS011;41509;53.108;6.100;2023-07-09T06:02:16;12.15;;;6.72;;
55641;SDS011;41509;53.108;6.100;2023-07-09T06:04:45;8.27;;;5.78;;
55641;SDS011;41509;53.108;6.100;2023-07-09T06:07:12;10.98;;;6.63;;
55641;SDS011;41509;53.108;6.100;2023-07-09T06:09:40;11.07;;;6.95;;
55641;SDS011;41509;53.108;6.100;2023-07-09T06:14:32;12.88;;;6.05;;
55641;SDS011;41509;53.108;6.100;2023-07-09T06:16:59;11.13;;;6.07;;
55641;SDS011;41509;53.108;6.100;2023-07-09T06:19:25;12.88;;;6.95;;
55641;SDS011;41509;53.108;6.100;2023-07-09T06:24:17;10.35;;;6.47;;
55641;SDS011;41509;53.108;6.100;2023-07-09T06:29:08;10.73;;;6.38;;
55641;SDS011;41509;53.108;6.100;2023-07-09T06:31:34;10.25;;;6.07;;
55641;SDS011;41509;53.108;6.100;2023-07-09T06:34:01;12.23;;;6.55;;
55641;SDS011;41509;53.108;6.100;2023-07-09T06:38:52;9.52;;;5.97;;
55641;SDS011;41509;53.108;6.100;2023-07-09T06:43:43;10.32;;;5.65;;
55641;SDS011;41509;53.108;6.100;2023-07-09T06:48:36;12.40;;;6.68;;
55641;SDS011;41509;53.108;6.100;2023-07-09T06:53:27;13.32;;;6.88;;
55641;SDS011;41509;53.108;6.100;2023-07-09T06:55:54;9.85;;;6.65;;
55641;SDS011;41509;53.108;6.100;2023-07-09T06:58:23;10.40;;;5.75;;
55641;SDS011;41509;53.108;6.100;2023-07-09T07:00:52;11.50;;;6.93;;
55641;SDS011;41509;53.108;6.100;2023-07-09T07:03:20;9.80;;;6.45;;
55641;SDS011;41509;53.108;6.100;2023-07-09T07:05:46;11.82;;;6.30;;
55641;SDS011;41509;53.108;6.100;2023-07-09T07:08:18;9.93;;;6.10;;
55641;SDS011;41509;53.108;6.100;2023-07-09T07:10:47;10.98;;;7.03;;
55641;SDS011;41509;53.108;6.100;2023-07-09T07:13:13;10.48;;;6.43;;
55641;SDS011;41509;53.108;6.100;2023-07-09T07:15:39;10.43;;;6.70;;
55641;SDS011;41509;53.108;6.100;2023-07-09T07:18:06;10.43;;;7.03;;
55641;SDS011;41509;53.108;6.100;2023-07-09T07:20:32;11.23;;;7.00;;
55641;SDS011;41509;53.108;6.100;2023-07-09T07:22:58;10.93;;;7.35;;
55641;SDS011;41509;53.108;6.100;2023-07-09T07:25:24;12.73;;;8.18;;
55641;SDS011;41509;53.108;6.100;2023-07-09T07:30:16;12.18;;;7.65;;
55641;SDS011;41509;53.108;6.100;2023-07-09T07:32:46;11.70;;;7.93;;
55641;SDS011;41509;53.108;6.100;2023-07-09T07:35:14;12.25;;;7.35;;
55641;SDS011;41509;53.108;6.100;2023-07-09T07:37:40;16.20;;;9.38;;
55641;SDS011;41509;53.108;6.100;2023-07-09T07:40:06;14.68;;;8.80;;
55641;SDS011;41509;53.108;6.100;2023-07-09T07:42:33;15.50;;;9.80;;
55641;SDS011;41509;53.108;6.100;2023-07-09T07:44:59;20.08;;;9.25;;
55641;SDS011;41509;53.108;6.100;2023-07-09T07:47:25;16.08;;;8.82;;
55641;SDS011;41509;53.108;6.100;2023-07-09T07:49:52;13.52;;;9.90;;
55641;SDS011;41509;53.108;6.100;2023-07-09T07:52:19;15.13;;;9.05;;
55641;SDS011;41509;53.108;6.100;2023-07-09T07:54:44;15.82;;;9.00;;
55641;SDS011;41509;53.108;6.100;2023-07-09T07:57:10;15.52;;;10.20;;
55641;SDS011;41509;53.108;6.100;2023-07-09T07:59:37;15.82;;;9.50;;
55641;SDS011;41509;53.108;6.100;2023-07-09T08:02:04;17.42;;;10.60;;
55641;SDS011;41509;53.108;6.100;2023-07-09T08:04:31;15.60;;;10.30;;
55641;SDS011;41509;53.108;6.100;2023-07-09T08:06:57;14.35;;;9.90;;
55641;SDS011;41509;53.108;6.100;2023-07-09T08:09:23;17.42;;;10.65;;
55641;SDS011;41509;53.108;6.100;2023-07-09T08:11:50;19.67;;;10.98;;
55641;SDS011;41509;53.108;6.100;2023-07-09T08:14:16;14.35;;;9.80;;
55641;SDS011;41509;53.108;6.100;2023-07-09T08:16:42;21.10;;;11.40;;
55641;SDS011;41509;53.108;6.100;2023-07-09T08:19:08;19.08;;;10.77;;
55641;SDS011;41509;53.108;6.100;2023-07-09T08:21:34;19.52;;;12.23;;
55641;SDS011;41509;53.108;6.100;2023-07-09T08:23:59;17.63;;;11.05;;
55641;SDS011;41509;53.108;6.100;2023-07-09T08:26:26;18.05;;;11.27;;
55641;SDS011;41509;53.108;6.100;2023-07-09T08:28:51;20.38;;;11.30;;
55641;SDS011;41509;53.108;6.100;2023-07-09T08:31:18;16.45;;;10.85;;
55641;SDS011;41509;53.108;6.100;2023-07-09T08:33:44;17.58;;;11.20;;
55641;SDS011;41509;53.108;6.100;2023-07-09T08:36:10;17.67;;;10.55;;
55641;SDS011;41509;53.108;6.100;2023-07-09T08:38:36;15.02;;;10.60;;
55641;SDS011;41509;53.108;6.100;2023-07-09T08:46:02;16.20;;;9.85;;
55641;SDS011;41509;53.108;6.100;2023-07-09T08:48:48;15.80;;;10.68;;
55641;SDS011;41509;53.108;6.100;2023-07-09T08:54:00;13.88;;;10.38;;
55641;SDS011;41509;53.108;6.100;2023-07-09T08:56:26;17.60;;;10.48;;
55641;SDS011;41509;53.108;6.100;2023-07-09T08:58:58;17.88;;;10.02;;
55641;SDS011;41509;53.108;6.100;2023-07-09T09:01:27;15.63;;;10.23;;
55641;SDS011;41509;53.108;6.100;2023-07-09T09:04:41;13.05;;;9.05;;
55641;SDS011;41509;53.108;6.100;2023-07-09T09:07:16;12.60;;;8.43;;
55641;SDS011;41509;53.108;6.100;2023-07-09T09:10:04;12.57;;;8.45;;
55641;SDS011;41509;53.108;6.100;2023-07-09T09:15:04;13.80;;;8.57;;
55641;SDS011;41509;53.108;6.100;2023-07-09T09:17:41;13.10;;;9.55;;
55641;SDS011;41509;53.108;6.100;2023-07-09T09:20:12;15.32;;;8.98;;
55641;SDS011;41509;53.108;6.100;2023-07-09T09:22:46;15.18;;;9.70;;
55641;SDS011;41509;53.108;6.100;2023-07-09T09:27:41;11.40;;;7.35;;
55641;SDS011;41509;53.108;6.100;2023-07-09T09:30:17;12.73;;;7.43;;
55641;SDS011;41509;53.108;6.100;2023-07-09T09:32:45;10.55;;;5.80;;
55641;SDS011;41509;53.108;6.100;2023-07-09T09:35:13;9.95;;;5.93;;
55641;SDS011;41509;53.108;6.100;2023-07-09T09:37:43;11.07;;;6.22;;
55641;SDS011;41509;53.108;6.100;2023-07-09T09:40:18;9.30;;;6.03;;
55641;SDS011;41509;53.108;6.100;2023-07-09T09:42:52;10.98;;;5.75;;
55641;SDS011;41509;53.108;6.100;2023-07-09T09:45:26;10.35;;;5.93;;
55641;SDS011;41509;53.108;6.100;2023-07-09T09:47:58;15.75;;;7.05;;
55641;SDS011;41509;53.108;6.100;2023-07-09T09:50:30;9.52;;;6.50;;
55641;SDS011;41509;53.108;6.100;2023-07-09T09:52:58;12.27;;;8.18;;
55641;SDS011;41509;53.108;6.100;2023-07-09T09:55:28;10.25;;;7.15;;
55641;SDS011;41509;53.108;6.100;2023-07-09T09:57:55;10.93;;;5.82;;
55641;SDS011;41509;53.108;6.100;2023-07-09T10:00:23;8.38;;;5.32;;
55641;SDS011;41509;53.108;6.100;2023-07-09T10:02:52;11.75;;;5.68;;
55641;SDS011;41509;53.108;6.100;2023-07-09T10:05:27;9.68;;;5.78;;
55641;SDS011;41509;53.108;6.100;2023-07-09T10:08:14;8.70;;;4.97;;
55641;SDS011;41509;53.108;6.100;2023-07-09T10:10:42;8.15;;;4.85;;
55641;SDS011;41509;53.108;6.100;2023-07-09T10:26:28;8.55;;;5.57;;
55641;SDS011;41509;53.108;6.100;2023-07-09T10:29:37;9.43;;;5.13;;
55641;SDS011;41509;53.108;6.100;2023-07-09T10:35:04;11.23;;;5.68;;
55641;SDS011;41509;53.108;6.100;2023-07-09T10:40:55;7.10;;;4.57;;
55641;SDS011;41509;53.108;6.100;2023-07-09T10:43:27;7.75;;;4.93;;
55641;SDS011;41509;53.108;6.100;2023-07-09T10:46:10;6.50;;;4.07;;
55641;SDS011;41509;53.108;6.100;2023-07-09T10:49:04;9.73;;;5.07;;
55641;SDS011;41509;53.108;6.100;2023-07-09T10:54:50;7.63;;;4.63;;
55641;SDS011;41509;53.108;6.100;2023-07-09T10:57:21;7.70;;;4.65;;
55641;SDS011;41509;53.108;6.100;2023-07-09T11:00:00;12.15;;;4.97;;
55641;SDS011;41509;53.108;6.100;2023-07-09T11:02:30;10.70;;;5.57;;
55641;SDS011;41509;53.108;6.100;2023-07-09T11:05:01;9.90;;;5.78;;
55641;SDS011;41509;53.108;6.100;2023-07-09T11:10:10;9.32;;;5.28;;
55641;SDS011;41509;53.108;6.100;2023-07-09T11:13:18;8.50;;;4.70;;
55641;SDS011;41509;53.108;6.100;2023-07-09T11:15:45;8.15;;;4.63;;
55641;SDS011;41509;53.108;6.100;2023-07-09T11:18:21;9.35;;;4.00;;
55641;SDS011;41509;53.108;6.100;2023-07-09T11:21:00;7.43;;;4.10;;
55641;SDS011;41509;53.108;6.100;2023-07-09T11:31:40;7.00;;;4.00;;
55641;SDS011;41509;53.108;6.100;2023-07-09T11:34:20;6.85;;;4.00;;
55641;SDS011;41509;53.108;6.100;2023-07-09T11:39:27;7.40;;;4.03;;
55641;SDS011;41509;53.108;6.100;2023-07-09T11:42:26;7.65;;;4.30;;
55641;SDS011;41509;53.108;6.100;2023-07-09T11:45:08;8.00;;;4.18;;
55641;SDS011;41509;53.108;6.100;2023-07-09T11:47:46;7.28;;;3.80;;
55641;SDS011;41509;53.108;6.100;2023-07-09T11:50:22;7.00;;;3.45;;
55641;SDS011;41509;53.108;6.100;2023-07-09T11:55:41;6.70;;;3.42;;
55641;SDS011;41509;53.108;6.100;2023-07-09T11:58:18;6.10;;;3.40;;
55641;SDS011;41509;53.108;6.100;2023-07-09T12:00:48;6.28;;;4.25;;
55641;SDS011;41509;53.108;6.100;2023-07-09T12:03:23;7.55;;;3.63;;
55641;SDS011;41509;53.108;6.100;2023-07-09T12:05:53;7.10;;;3.67;;
55641;SDS011;41509;53.108;6.100;2023-07-09T12:08:24;6.15;;;3.17;;
55641;SDS011;41509;53.108;6.100;2023-07-09T12:13:54;7.55;;;3.42;;
55641;SDS011;41509;53.108;6.100;2023-07-09T12:16:39;6.60;;;3.45;;
55641;SDS011;41509;53.108;6.100;2023-07-09T12:19:13;5.97;;;3.67;;
55641;SDS011;41509;53.108;6.100;2023-07-09T12:21:42;7.95;;;4.00;;
55641;SDS011;41509;53.108;6.100;2023-07-09T12:24:17;7.15;;;3.50;;
55641;SDS011;41509;53.108;6.100;2023-07-09T12:26:52;5.90;;;3.13;;
55641;SDS011;41509;53.108;6.100;2023-07-09T12:29:19;7.28;;;3.72;;
55641;SDS011;41509;53.108;6.100;2023-07-09T12:31:48;5.72;;;3.10;;
55641;SDS011;41509;53.108;6.100;2023-07-09T12:34:14;7.10;;;3.85;;
55641;SDS011;41509;53.108;6.100;2023-07-09T12:36:43;6.40;;;3.60;;
55641;SDS011;41509;53.108;6.100;2023-07-09T12:39:12;8.32;;;3.90;;
55641;SDS011;41509;53.108;6.100;2023-07-09T12:41:40;7.38;;;3.72;;
55641;SDS011;41509;53.108;6.100;2023-07-09T12:44:15;5.95;;;3.60;;
55641;SDS011;41509;53.108;6.100;2023-07-09T12:46:43;5.30;;;3.35;;
55641;SDS011;41509;53.108;6.100;2023-07-09T12:49:26;6.97;;;3.70;;
55641;SDS011;41509;53.108;6.100;2023-07-09T12:51:54;6.80;;;3.45;;
55641;SDS011;41509;53.108;6.100;2023-07-09T12:54:21;7.28;;;4.32;;
55641;SDS011;41509;53.108;6.100;2023-07-09T12:56:50;6.40;;;3.80;;
55641;SDS011;41509;53.108;6.100;2023-07-09T12:59:25;7.65;;;3.63;;
55641;SDS011;41509;53.108;6.100;2023-07-09T13:02:00;5.85;;;3.80;;
55641;SDS011;41509;53.108;6.100;2023-07-09T13:04:37;6.10;;;3.92;;
55641;SDS011;41509;53.108;6.100;2023-07-09T13:07:04;5.68;;;3.70;;
55641;SDS011;41509;53.108;6.100;2023-07-09T13:09:30;8.00;;;3.92;;
55641;SDS011;41509;53.108;6.100;2023-07-09T13:11:56;6.40;;;3.70;;
55641;SDS011;41509;53.108;6.100;2023-07-09T13:14:27;7.00;;;3.83;;
55641;SDS011;41509;53.108;6.100;2023-07-09T13:17:02;6.15;;;3.40;;
55641;SDS011;41509;53.108;6.100;2023-07-09T13:19:31;6.95;;;3.90;;
55641;SDS011;41509;53.108;6.100;2023-07-09T13:21:58;8.00;;;3.78;;
55641;SDS011;41509;53.108;6.100;2023-07-09T13:24:24;7.28;;;4.22;;
55641;SDS011;41509;53.108;6.100;2023-07-09T13:26:52;7.10;;;4.03;;
55641;SDS011;41509;53.108;6.100;2023-07-09T13:29:19;6.63;;;4.10;;
55641;SDS011;41509;53.108;6.100;2023-07-09T13:31:46;7.63;;;3.53;;
55641;SDS011;41509;53.108;6.100;2023-07-09T13:34:20;6.40;;;3.75;;
55641;SDS011;41509;53.108;6.100;2023-07-09T13:36:48;11.07;;;4.28;;
55641;SDS011;41509;53.108;6.100;2023-07-09T13:39:15;7.20;;;4.50;;
55641;SDS011;41509;53.108;6.100;2023-07-09T13:41:45;6.93;;;4.22;;
55641;SDS011;41509;53.108;6.100;2023-07-09T13:44:13;7.70;;;3.88;;
55641;SDS011;41509;53.108;6.100;2023-07-09T13:46:45;5.47;;;3.60;;
55641;SDS011;41509;53.108;6.100;2023-07-09T13:49:12;8.95;;;3.85;;
55641;SDS011;41509;53.108;6.100;2023-07-09T13:51:40;6.32;;;3.95;;
55641;SDS011;41509;53.108;6.100;2023-07-09T13:54:20;7.22;;;3.58;;
55641;SDS011;41509;53.108;6.100;2023-07-09T13:56:48;5.47;;;3.63;;
55641;SDS011;41509;53.108;6.100;2023-07-09T13:59:16;6.00;;;3.45;;
55641;SDS011;41509;53.108;6.100;2023-07-09T14:01:43;6.63;;;3.50;;
55641;SDS011;41509;53.108;6.100;2023-07-09T14:04:13;8.00;;;5.13;;
55641;SDS011;41509;53.108;6.100;2023-07-09T14:06:41;6.22;;;3.83;;
55641;SDS011;41509;53.108;6.100;2023-07-09T14:09:08;7.65;;;4.05;;
55641;SDS011;41509;53.108;6.100;2023-07-09T14:11:36;6.95;;;3.65;;
55641;SDS011;41509;53.108;6.100;2023-07-09T14:14:21;7.28;;;3.78;;
55641;SDS011;41509;53.108;6.100;2023-07-09T14:16:48;6.00;;;3.40;;
55641;SDS011;41509;53.108;6.100;2023-07-09T14:19:17;7.05;;;3.80;;
55641;SDS011;41509;53.108;6.100;2023-07-09T14:21:44;8.00;;;4.20;;
55641;SDS011;41509;53.108;6.100;2023-07-09T14:24:18;7.75;;;3.95;;
55641;SDS011;41509;53.108;6.100;2023-07-09T14:26:45;12.85;;;6.63;;
55641;SDS011;41509;53.108;6.100;2023-07-09T14:29:12;8.10;;;4.22;;
55641;SDS011;41509;53.108;6.100;2023-07-09T14:31:39;10.23;;;4.25;;
55641;SDS011;41509;53.108;6.100;2023-07-09T14:34:22;6.40;;;3.45;;
55641;SDS011;41509;53.108;6.100;2023-07-09T14:36:58;5.43;;;3.33;;
55641;SDS011;41509;53.108;6.100;2023-07-09T14:39:28;8.27;;;4.10;;
55641;SDS011;41509;53.108;6.100;2023-07-09T14:41:54;12.07;;;3.72;;
55641;SDS011;41509;53.108;6.100;2023-07-09T14:46:51;10.80;;;3.63;;
55641;SDS011;41509;53.108;6.100;2023-07-09T14:49:18;7.10;;;3.70;;
55641;SDS011;41509;53.108;6.100;2023-07-09T14:51:44;7.28;;;3.03;;
55641;SDS011;41509;53.108;6.100;2023-07-09T14:54:20;7.72;;;3.53;;
55641;SDS011;41509;53.108;6.100;2023-07-09T14:56:51;6.75;;;3.75;;
55641;SDS011;41509;53.108;6.100;2023-07-09T14:59:18;5.93;;;2.88;;
55641;SDS011;41509;53.108;6.100;2023-07-09T15:01:44;12.88;;;3.95;;
55641;SDS011;41509;53.108;6.100;2023-07-09T15:06:49;8.77;;;4.38;;
55641;SDS011;41509;53.108;6.100;2023-07-09T15:09:16;7.05;;;2.90;;
55641;SDS011;41509;53.108;6.100;2023-07-09T15:11:51;5.25;;;2.83;;
55641;SDS011;41509;53.108;6.100;2023-07-09T15:14:18;7.85;;;3.10;;
55641;SDS011;41509;53.108;6.100;2023-07-09T15:16:46;4.93;;;2.97;;
55641;SDS011;41509;53.108;6.100;2023-07-09T15:19:13;7.43;;;3.28;;
55641;SDS011;41509;53.108;6.100;2023-07-09T15:21:39;10.27;;;3.85;;
55641;SDS011;41509;53.108;6.100;2023-07-09T15:24:09;9.70;;;4.25;;
55641;SDS011;41509;53.108;6.100;2023-07-09T15:26:44;11.43;;;4.05;;
55641;SDS011;41509;53.108;6.100;2023-07-09T15:29:13;7.03;;;3.25;;
55641;SDS011;41509;53.108;6.100;2023-07-09T15:31:43;8.57;;;3.80;;
55641;SDS011;41509;53.108;6.100;2023-07-09T15:34:08;7.53;;;2.83;;
55641;SDS011;41509;53.108;6.100;2023-07-09T15:36:35;10.20;;;3.28;;
55641;SDS011;41509;53.108;6.100;2023-07-09T15:39:01;8.23;;;3.53;;
55641;SDS011;41509;53.108;6.100;2023-07-09T15:41:27;10.18;;;3.40;;
55641;SDS011;41509;53.108;6.100;2023-07-09T15:46:19;7.53;;;4.13;;
55641;SDS011;41509;53.108;6.100;2023-07-09T15:48:47;8.98;;;4.45;;
55641;SDS011;41509;53.108;6.100;2023-07-09T15:51:14;8.93;;;4.45;;
55641;SDS011;41509;53.108;6.100;2023-07-09T15:53:40;10.57;;;4.15;;
55641;SDS011;41509;53.108;6.100;2023-07-09T15:56:12;8.43;;;4.57;;
55641;SDS011;41509;53.108;6.100;2023-07-09T15:58:58;8.70;;;4.00;;
55641;SDS011;41509;53.108;6.100;2023-07-09T16:01:26;11.10;;;4.47;;
55641;SDS011;41509;53.108;6.100;2023-07-09T16:06:23;9.77;;;4.03;;
55641;SDS011;41509;53.108;6.100;2023-07-09T16:13:45;8.68;;;4.03;;
55641;SDS011;41509;53.108;6.100;2023-07-09T16:16:15;8.60;;;3.72;;
55641;SDS011;41509;53.108;6.100;2023-07-09T16:18:42;7.75;;;3.65;;
55641;SDS011;41509;53.108;6.100;2023-07-09T16:23:55;9.82;;;4.15;;
55641;SDS011;41509;53.108;6.100;2023-07-09T16:26:24;9.50;;;4.38;;
55641;SDS011;41509;53.108;6.100;2023-07-09T16:31:15;7.40;;;3.20;;
55641;SDS011;41509;53.108;6.100;2023-07-09T16:36:14;6.95;;;3.42;;
55641;SDS011;41509;53.108;6.100;2023-07-09T16:38:41;9.20;;;3.80;;
55641;SDS011;41509;53.108;6.100;2023-07-09T16:43:37;6.53;;;3.33;;
55641;SDS011;41509;53.108;6.100;2023-07-09T16:46:10;10.43;;;4.18;;
55641;SDS011;41509;53.108;6.100;2023-07-09T16:48:48;13.80;;;4.55;;
55641;SDS011;41509;53.108;6.100;2023-07-09T16:51:15;14.65;;;5.03;;
55641;SDS011;41509;53.108;6.100;2023-07-09T16:56:13;12.05;;;5.30;;
55641;SDS011;41509;53.108;6.100;2023-07-09T16:58:40;13.73;;;5.93;;
55641;SDS011;41509;53.108;6.100;2023-07-09T17:03:31;11.00;;;4.47;;
55641;SDS011;41509;53.108;6.100;2023-07-09T17:05:57;11.95;;;4.82;;
55641;SDS011;41509;53.108;6.100;2023-07-09T17:13:21;8.38;;;3.35;;
55641;SDS011;41509;53.108;6.100;2023-07-09T17:15:52;9.05;;;3.63;;
55641;SDS011;41509;53.108;6.100;2023-07-09T17:23:10;11.48;;;3.40;;
55641;SDS011;41509;53.108;6.100;2023-07-09T17:28:17;10.73;;;4.30;;
55641;SDS011;41509;53.108;6.100;2023-07-09T17:30:48;8.10;;;3.50;;
55641;SDS011;41509;53.108;6.100;2023-07-09T17:33:16;8.32;;;4.07;;
55641;SDS011;41509;53.108;6.100;2023-07-09T17:35:42;13.30;;;5.18;;
55641;SDS011;41509;53.108;6.100;2023-07-09T17:38:13;12.57;;;5.32;;
55641;SDS011;41509;53.108;6.100;2023-07-09T17:40:42;10.48;;;4.90;;
55641;SDS011;41509;53.108;6.100;2023-07-09T17:45:37;10.25;;;5.10;;
55641;SDS011;41509;53.108;6.100;2023-07-09T17:50:34;11.27;;;5.47;;
55641;SDS011;41509;53.108;6.100;2023-07-09T17:55:26;11.70;;;6.00;;
55641;SDS011;41509;53.108;6.100;2023-07-09T17:57:53;9.65;;;5.45;;
55641;SDS011;41509;53.108;6.100;2023-07-09T18:00:23;9.55;;;5.05;;
55641;SDS011;41509;53.108;6.100;2023-07-09T18:02:59;8.52;;;5.35;;
55641;SDS011;41509;53.108;6.100;2023-07-09T18:05:31;11.00;;;5.68;;
55641;SDS011;41509;53.108;6.100;2023-07-09T18:07:58;10.18;;;5.32;;
55641;SDS011;41509;53.108;6.100;2023-07-09T18:10:24;9.50;;;6.18;;
55641;SDS011;41509;53.108;6.100;2023-07-09T18:13:06;10.07;;;5.40;;
55641;SDS011;41509;53.108;6.100;2023-07-09T18:15:40;12.10;;;5.72;;
55641;SDS011;41509;53.108;6.100;2023-07-09T18:18:08;11.70;;;6.32;;